Terminal Aerodrome Forecast
Issued by NWS Sioux Falls, SD

Home | Current Version | Previous Version | Graphics & Text | Print | Product List | Glossary On
Versions: 1 2 3 4 5 6 7 8 9 10 11 12 13 14 15 16 17 18
000
FTUS43 KFSD 291720
TAFFSD
TAF
KFSD 291720Z 2918/3018 18007KT P6SM SKC
     FM300000 17005KT P6SM SKC
     FM300900 17005KT 4SM BR SKC
     FM301500 17012KT P6SM SKC=

USA.gov is the U.S. government's official web portal to all federal, state and local government web resources and services.